Latest Coastal Weather Observations for Edithburgh

IDS60701

Issued at 12:11 am CDT Sunday 7 February 2016 (issued every 10 minutes, with the page automatically refreshed every 10 minutes)

About coastal observations | Map of coastal stations | Coastal observations for SA | Marine services | Other Formats
Station Details ID: 022046 Name: EDITHBURGH Lat: -35.11 Lon: 137.74 Height: 6.0 m
Data from the previous 72 hours. | See also: Recent months at Edithburgh
Date/Time
CDT
Temp

°C
Wind Pressure Rain
since 9am
mm
Weather Cloud Vis
km
Sea
Height
m
Swell
Dir
 
Speed
knots
Gust
knots
hPa Trend Height
m
Period
s
Dir
07/12:00am 18.7 S 15 21 1016.4 - 0.0 - - - - - - -
 
Date/Time
CDT
Temp

°C
Wind Pressure Rain
since 9am
mm
Weather Cloud Vis
km
Sea
Height
m
Swell
Dir
 
Speed
knots
Gust
knots
hPa Trend Height
m
Period
s
Dir
06/11:30pm 18.6 S 15 19 1016.3 - 0.0 - - - - - - -
06/11:00pm 18.5 S 15 20 1016.4 - 0.0 - - - - - - -
06/10:30pm 18.5 S 16 20 1016.1 - 0.0 - - - - - - -
06/10:00pm 18.7 S 15 21 1016.0 - 0.0 - - - - - - -
06/09:30pm 18.8 S 16 22 1015.8 - 0.0 - - - - - - -
06/09:00pm 18.8 S 15 19 1015.4 - 0.0 - - - - - - -
06/08:30pm 19.1 S 16 21 1015.3 - 0.0 - - - - - - -
06/08:00pm 19.7 S 15 19 1015.0 - 0.0 - - - - - - -
06/07:30pm 20.2 S 15 21 1014.8 - 0.0 - - - - - - -
06/07:00pm 20.8 S 16 21 1014.3 - 0.0 - - - - - - -
06/06:30pm 21.1 S 16 22 1014.1 - 0.0 - - - - - - -
06/06:00pm 21.8 S 17 23 1014.0 - 0.0 - - - - - - -
06/05:30pm 22.3 S 18 23 1013.7 - 0.0 - - - - - - -
06/05:00pm 22.7 S 15 20 1013.8 - 0.0 - - - - - - -
06/04:30pm 23.1 S 14 18 1013.9 - 0.0 - - - - - - -
06/04:00pm 23.1 S 14 17 1013.9 - 0.0 - - - - - - -
06/03:30pm 24.0 SSE 13 17 1014.2 - 0.0 - - - - - - -
06/03:00pm 23.7 S 13 17 1014.6 - 0.0 - - - - - - -
06/02:30pm 24.0 S 12 16 1014.8 - 0.0 - - - - - - -
06/02:00pm 22.5 S 13 16 1015.0 - 0.0 - - - - - - -
06/01:30pm 23.7 S 11 16 1015.2 - 0.0 - - - - - - -
06/01:00pm 22.8 S 11 16 1015.3 - 0.0 - - - - - - -
06/12:30pm 22.7 S 11 15 1015.3 - 0.0 - - - - - - -
06/12:00pm 21.9 S 11 15 1015.5 - 0.0 - - - - - - -
06/11:30am 21.7 S 9 13 1015.8 - 0.0 - - - - - - -
06/11:00am 21.6 SSE 10 13 1015.8 - 0.0 - - - - - - -
06/10:30am 21.1 S 8 11 1015.9 - 0.0 - - - - - - -
06/10:00am 20.8 S 9 13 1015.8 - 0.0 - - - - - - -
06/09:30am 20.4 SSE 11 14 1015.6 - 0.0 - - - - - - -
06/09:00am 19.9 SSE 12 14 1015.5 - 0.0 - - - - - - -
06/08:30am 19.9 S 11 14 1015.4 - 0.0 - - - - - - -
06/08:00am 19.6 S 10 14 1015.3 - 0.0 - - - - - - -
06/07:30am 18.9 S 12 15 1014.8 - 0.0 - - - - - - -
06/07:00am 18.6 S 12 15 1014.7 - 0.0 - - - - - - -
06/06:30am 18.5 S 11 14 1014.4 - 0.0 - - - - - - -
06/06:00am 18.6 SSE 12 15 1014.1 - 0.0 - - - - - - -
06/05:30am 18.4 S 12 16 1014.2 - 0.0 - - - - - - -
06/05:00am 18.4 SSE 11 16 1014.1 - 0.0 - - - - - - -
06/04:30am 18.3 SSE 12 16 1014.3 - 0.0 - - - - - - -
06/04:00am 18.3 S 12 17 1014.5 - 0.0 - - - - - - -
06/03:30am 18.3 SSE 13 17 1014.6 - 0.0 - - - - - - -
06/03:00am 18.3 SSE 15 19 1014.8 - 0.0 - - - - - - -
06/02:30am 18.2 SSE 15 19 1015.1 - 0.0 - - - - - - -
06/02:00am 18.3 SSE 16 20 1015.4 - 0.0 - - - - - - -
06/01:30am 18.2 SSE 16 21 1015.7 - 0.0 - - - - - - -
06/01:00am 18.1 SSE 17 23 1015.8 - 0.0 - - - - - - -
06/12:30am 18.1 SSE 16 23 1016.2 - 0.0 - - - - - - -
06/12:00am 18.1 SSE 17 23 1016.4 - 0.0 - - - - - - -
 
Date/Time
CDT
Temp

°C
Wind Pressure Rain
since 9am
mm
Weather Cloud Vis
km
Sea
Height
m
Swell
Dir
 
Speed
knots
Gust
knots
hPa Trend Height
m
Period
s
Dir
05/11:30pm 18.0 SSE 16 23 1016.6 - 0.0 - - - - - - -
05/11:00pm 18.1 SSE 18 25 1016.8 - 0.0 - - - - - - -
05/10:30pm 18.1 SSE 18 23 1016.7 - 0.0 - - - - - - -
05/10:00pm 18.1 SSE 18 23 1016.9 - 0.0 - - - - - - -
05/09:30pm 18.2 S 18 24 1016.7 - 0.0 - - - - - - -
05/09:00pm 18.4 SSE 17 22 1016.4 - 0.0 - - - - - - -
05/08:30pm 18.4 SSE 17 23 1016.2 - 0.0 - - - - - - -
05/08:00pm 18.7 SSE 16 21 1016.2 - 0.0 - - - - - - -
05/07:30pm 18.9 SSE 17 23 1015.9 - 0.0 - - - - - - -
05/07:00pm 19.4 S 16 21 1016.0 - 0.0 - - - - - - -
05/06:30pm 19.8 S 17 21 1015.9 - 0.0 - - - - - - -
05/06:00pm 20.4 S 14 19 1016.1 - 0.0 - - - - - - -
05/05:30pm 20.2 S 16 19 1016.2 - 0.0 - - - - - - -
05/05:00pm 20.1 SSE 15 20 1016.4 - 0.0 - - - - - - -
05/04:30pm 20.4 SSE 16 20 1016.5 - 0.0 - - - - - - -
05/04:00pm 21.2 SSE 15 19 1016.8 - 0.0 - - - - - - -
05/03:30pm 20.4 SSE 16 19 1017.0 - 0.0 - - - - - - -
05/03:00pm 20.9 SSE 16 21 1017.2 - 0.0 - - - - - - -
05/02:30pm 20.6 SSE 15 19 1017.8 - 0.0 - - - - - - -
05/02:00pm 20.5 SSE 15 19 1017.9 - 0.0 - - - - - - -
05/01:30pm 20.2 SSE 14 18 1018.2 - 0.0 - - - - - - -
05/01:00pm 20.0 SSE 13 17 1018.6 - 0.0 - - - - - - -
05/12:30pm 19.7 SSE 14 17 1018.8 - 0.0 - - - - - - -
05/12:00pm 20.1 SSE 14 18 1019.1 - 0.0 - - - - - - -
05/11:30am 19.7 SE 15 19 1019.3 - 0.0 - - - - - - -
05/11:00am 19.4 SE 14 18 1019.4 - 0.0 - - - - - - -
05/10:30am 19.3 SE 14 19 1019.6 - 0.0 - - - - - - -
05/10:00am 18.2 SE 16 21 1019.6 - 0.0 - - - - - - -
05/09:30am 18.4 SE 13 19 1019.9 - 0.0 - - - - - - -
05/09:00am 17.6 SE 14 18 1020.0 - 0.0 - - - - - - -
05/08:30am 17.2 SE 13 18 1019.9 - 0.0 - - - - - - -
05/08:00am 16.9 SE 12 17 1019.7 - 0.0 - - - - - - -
05/07:30am 16.9 SE 13 18 1019.4 - 0.0 - - - - - - -
05/07:00am 16.9 SE 12 16 1019.2 - 0.0 - - - - - - -
05/06:30am 16.9 SE 14 20 1018.9 - 0.0 - - - - - - -
05/06:00am 16.9 SSE 14 19 1018.7 - 0.0 - - - - - - -
05/05:30am 17.1 SSE 14 19 1018.5 - 0.0 - - - - - - -
05/05:00am 17.1 SE 15 19 1018.4 - 0.0 - - - - - - -
05/04:30am 17.1 SE 14 20 1018.4 - 0.0 - - - - - - -
05/04:00am 17.1 SSE 16 21 1018.2 - 0.0 - - - - - - -
05/03:30am 16.9 SSE 17 24 1018.2 - 0.0 - - - - - - -
05/03:00am 16.8 SSE 17 23 1018.3 - 0.0 - - - - - - -
05/02:30am 16.7 SE 18 23 1018.4 - 0.0 - - - - - - -
05/02:00am 16.8 SSE 19 25 1018.7 - 0.0 - - - - - - -
05/01:30am 16.9 SSE 19 25 1019.0 - 0.0 - - - - - - -
05/01:00am 17.0 SSE 19 27 1019.4 - 0.0 - - - - - - -
05/12:30am 17.0 SSE 19 26 1019.2 - 0.0 - - - - - - -
05/12:00am 17.3 SSE 19 25 1019.4 - 0.0 - - - - - - -
 
Date/Time
CDT
Temp

°C
Wind Pressure Rain
since 9am
mm
Weather Cloud Vis
km
Sea
Height
m
Swell
Dir
 
Speed
knots
Gust
knots
hPa Trend Height
m
Period
s
Dir
04/11:30pm 17.5 SSE 18 23 1019.6 - 0.0 - - - - - - -
04/11:00pm 17.5 SSE 18 25 1019.7 - 0.0 - - - - - - -
04/10:30pm 17.3 SSE 18 25 1019.9 - 0.0 - - - - - - -
04/10:00pm 17.4 SSE 19 26 1019.9 - 0.0 - - - - - - -
04/09:30pm 17.4 SSE 18 24 1019.8 - 0.0 - - - - - - -
04/09:00pm 17.5 SSE 19 24 1019.7 - 0.0 - - - - - - -
04/08:30pm 17.6 SSE 19 24 1019.5 - 0.0 - - - - - - -
04/08:00pm 17.9 SSE 20 27 1019.5 - 0.0 - - - - - - -
04/07:30pm 18.3 SSE 20 27 1019.3 - 0.0 - - - - - - -
04/07:00pm 18.7 SSE 20 26 1019.2 - 0.0 - - - - - - -
04/06:30pm 19.0 SSE 20 26 1019.2 - 0.0 - - - - - - -
04/06:00pm 19.3 SSE 19 26 1019.1 - 0.0 - - - - - - -
04/05:30pm 19.9 SSE 20 25 1019.1 - 0.0 - - - - - - -
04/05:00pm 20.0 SSE 19 26 1019.2 - 0.0 - - - - - - -
04/04:30pm 20.4 SSE 19 24 1019.4 - 0.0 - - - - - - -
04/04:00pm 20.6 SSE 19 27 1019.5 - 0.0 - - - - - - -
04/03:30pm 20.9 SSE 19 25 1019.8 - 0.0 - - - - - - -
04/03:00pm 21.0 SSE 19 25 1019.9 - 0.0 - - - - - - -
04/02:30pm 20.5 SSE 18 24 1020.1 - 0.0 - - - - - - -
04/02:00pm 20.6 SSE 19 24 1020.3 - 0.0 - - - - - - -
04/01:30pm 20.5 SSE 18 23 1020.8 - 0.0 - - - - - - -
04/01:00pm 20.4 SSE 18 23 1021.1 - 0.0 - - - - - - -
04/12:30pm 20.4 SSE 18 24 1021.2 - 0.0 - - - - - - -
04/12:00pm 20.0 SSE 16 21 1021.5 - 0.0 - - - - - - -
04/11:30am 19.8 SSE 16 22 1021.7 - 0.0 - - - - - - -
04/11:00am 20.4 SSE 16 21 1021.8 - 0.0 - - - - - - -
04/10:30am 19.5 SE 17 21 1021.5 - 0.0 - - - - - - -
04/10:00am 18.8 SSE 17 24 1021.3 - 0.0 - - - - - - -
04/09:30am 18.4 SSE 17 22 1021.2 - 0.0 - - - - - - -
04/09:00am 18.3 SE 15 20 1021.1 - 0.0 - - - - - - -
04/08:30am 18.4 SSE 16 21 1021.0 - 0.0 - - - - - - -
04/08:00am 17.9 SSE 15 20 1020.7 - 0.0 - - - - - - -
04/07:30am 17.6 SSE 15 21 1020.6 - 0.0 - - - - - - -
04/07:00am 17.4 SE 16 23 1020.4 - 0.0 - - - - - - -
04/06:30am 17.4 SSE 15 20 1020.1 - 0.0 - - - - - - -
04/06:00am 17.7 SSE 16 20 1019.9 - 0.0 - - - - - - -
04/05:30am 17.6 SE 16 25 1019.4 - 0.0 - - - - - - -
04/05:00am 17.7 SE 16 22 1019.1 - 0.0 - - - - - - -
04/04:30am 17.7 SE 16 21 1019.0 - 0.0 - - - - - - -
04/04:00am 17.8 SSE 15 19 1018.7 - 0.0 - - - - - - -
04/03:30am 17.9 SSE 16 21 1018.7 - 0.0 - - - - - - -
04/03:00am 17.6 SSE 15 20 1018.7 - 0.0 - - - - - - -
04/02:30am 17.9 SSE 15 22 1018.5 - 0.0 - - - - - - -
04/02:00am 17.8 SSE 15 20 1018.5 - 0.0 - - - - - - -
04/01:30am 17.9 SSE 16 23 1018.4 - 0.0 - - - - - - -
04/01:00am 18.2 SE 17 23 1018.6 - 0.0 - - - - - - -
04/12:30am 18.1 SSE 16 22 1018.7 - 0.0 - - - - - - -

Other Formats:

Comma delimited format used in spreadsheet applications
http://www.bom.gov.au/fwo/IDS60701/IDS60701.94809.axf

JavaScript Object Notation format (JSON) in row-major order
http://www.bom.gov.au/fwo/IDS60701/IDS60701.94809.json